TimeAKDT,TemperatureF,Dew PointF,Humidity,Sea Level PressureIn,VisibilityMPH,Wind Direction,Wind SpeedMPH,Gust SpeedMPH,PrecipitationIn,Events,Conditions,WindDirDegrees,DateUTC
12:53 AM,57.0,57.0,100,30.00,10.0,SSE,5.8,-,N/A,,Partly Cloudy,160,2013-09-04 08:53:00
1:05 AM,57.2,57.2,100,30.00,10.0,SE,4.6,-,N/A,,Mostly Cloudy,140,2013-09-04 09:05:00
1:19 AM,57.2,57.2,100,30.00,5.0,SSE,4.6,-,N/A,,Overcast,160,2013-09-04 09:19:00
1:53 AM,59.0,59.0,100,30.01,5.0,SE,6.9,-,N/A,,Overcast,140,2013-09-04 09:53:00
2:53 AM,59.0,59.0,100,30.00,10.0,SE,3.5,-,N/A,,Overcast,140,2013-09-04 10:53:00
3:03 AM,59.0,59.0,100,30.00,10.0,SSE,3.5,-,N/A,,Overcast,150,2013-09-04 11:03:00
3:53 AM,-9999,-9999,N/A,30.01,10.0,SE,5.8,-,N/A,,Overcast,140,2013-09-04 11:53:00
4:51 AM,57.2,57.2,100,30.01,10.0,South,4.6,-,N/A,,Mostly Cloudy,170,2013-09-04 12:51:00
4:53 AM,57.0,57.0,100,30.01,10.0,South,4.6,-,N/A,,Mostly Cloudy,170,2013-09-04 12:53:00
5:08 AM,57.2,57.2,100,30.02,10.0,SSE,4.6,-,N/A,,Overcast,160,2013-09-04 13:08:00
5:33 AM,57.2,57.2,100,30.02,10.0,South,5.8,-,N/A,,Overcast,170,2013-09-04 13:33:00
5:41 AM,57.2,57.2,100,30.02,10.0,South,4.6,-,N/A,,Overcast,180,2013-09-04 13:41:00
5:53 AM,57.9,57.0,97,30.03,10.0,South,4.6,-,N/A,,Overcast,170,2013-09-04 13:53:00
6:53 AM,57.9,57.9,100,30.05,10.0,SSE,6.9,-,N/A,,Overcast,150,2013-09-04 14:53:00
7:53 AM,59.0,55.9,90,30.06,10.0,SE,9.2,-,N/A,,Overcast,130,2013-09-04 15:53:00
8:53 AM,60.1,57.0,90,30.06,10.0,SE,11.5,-,N/A,,Overcast,140,2013-09-04 16:53:00
9:53 AM,60.1,57.0,90,30.08,10.0,SE,9.2,-,N/A,,Overcast,140,2013-09-04 17:53:00
10:53 AM,60.1,57.0,90,30.09,10.0,SE,9.2,-,N/A,,Overcast,140,2013-09-04 18:53:00
11:53 AM,61.0,55.9,83,30.10,10.0,SE,8.1,-,N/A,,Overcast,130,2013-09-04 19:53:00
12:53 PM,61.0,55.9,83,30.10,10.0,SE,10.4,-,N/A,,Overcast,130,2013-09-04 20:53:00
1:53 PM,59.0,57.9,96,30.11,5.0,SSE,6.9,-,N/A,,Overcast,150,2013-09-04 21:53:00
2:53 PM,57.9,57.9,100,30.12,3.0,SSE,5.8,-,0.01,Rain,Light Rain,150,2013-09-04 22:53:00
3:02 PM,57.2,57.2,100,30.11,3.0,SSE,8.1,-,0.00,Rain,Light Rain,150,2013-09-04 23:02:00
3:39 PM,57.2,57.2,100,30.11,2.0,ESE,9.2,-,0.02,Rain,Light Rain,120,2013-09-04 23:39:00
3:53 PM,57.9,57.9,100,30.11,3.0,SE,9.2,-,0.02,Rain,Light Rain,130,2013-09-04 23:53:00
4:53 PM,57.9,57.9,100,30.10,3.0,SE,9.2,-,0.03,Rain,Light Rain,130,2013-09-05 00:53:00
5:53 PM,59.0,59.0,100,30.10,10.0,SE,9.2,-,0.00,,Overcast,130,2013-09-05 01:53:00
6:53 PM,59.0,59.0,100,30.11,10.0,SE,8.1,-,0.01,Rain,Light Rain,140,2013-09-05 02:53:00
7:53 PM,59.0,59.0,100,30.12,10.0,SE,4.6,-,0.00,,Overcast,140,2013-09-05 03:53:00
8:53 PM,57.9,57.9,100,30.12,10.0,SE,5.8,-,N/A,,Overcast,130,2013-09-05 04:53:00
9:00 PM,57.2,57.2,100,30.12,10.0,SE,5.8,-,N/A,,Overcast,140,2013-09-05 05:00:00
9:53 PM,57.9,57.9,100,30.13,10.0,South,4.6,-,N/A,,Overcast,170,2013-09-05 05:53:00
10:53 PM,57.9,57.9,100,30.13,10.0,SSE,4.6,-,0.00,,Overcast,160,2013-09-05 06:53:00
11:25 PM,57.2,57.2,100,30.13,7.0,SSE,8.1,-,0.00,,Overcast,150,2013-09-05 07:25:00
11:53 PM,57.9,57.9,100,30.14,5.0,SSE,5.8,-,0.00,,Overcast,150,2013-09-05 07:53:00